Time;durP1;ratioP1;P1;durP2;ratioP2;P2;SDS_P1;SDS_P2;PMS_P1;PMS_P2;Temp;Humidity;BMP_temperature;BMP_pressure;BME280_temperature;BME280_humidity;BME280_pressure;Samples;Min_cycle;Max_cycle;Signal;HPM_P1;HPM_P2
2023/01/08 00:02:19;;;;;;;5.22;3.50;;;;;;;2.39;100.00;100250.41;6373929;27;20050;-78
2023/01/08 00:05:20;;;;;;;6.50;3.78;;;;;;;2.37;100.00;100257.31;6374214;27;20092;-81
2023/01/08 00:08:21;;;;;;;4.88;3.45;;;;;;;2.35;100.00;100254.78;6373830;27;20069;-78
2023/01/08 00:11:22;;;;;;;12.43;3.28;;;;;;;2.36;100.00;100260.78;6375029;27;20039;-78
2023/01/08 00:14:23;;;;;;;4.15;3.22;;;;;;;2.41;100.00;100258.94;6373637;27;20043;-80
2023/01/08 00:17:26;;;;;;;4.93;3.47;;;;;;;2.40;100.00;100252.94;6373768;27;20071;-79
2023/01/08 00:20:27;;;;;;;7.53;3.97;;;;;;;2.38;100.00;100246.13;6375198;27;20039;-78
2023/01/08 00:23:28;;;;;;;9.48;4.03;;;;;;;2.38;100.00;100241.81;6373581;27;20050;-78
2023/01/08 00:26:29;;;;;;;4.45;3.15;;;;;;;2.45;100.00;100249.38;6373514;27;20063;-78
2023/01/08 00:29:30;;;;;;;4.32;3.00;;;;;;;2.43;100.00;100241.72;6373386;27;20043;-78
2023/01/08 00:32:31;;;;;;;8.23;3.90;;;;;;;2.40;100.00;100247.78;6373889;27;20501;-81
2023/01/08 00:35:34;;;;;;;7.07;4.43;;;;;;;2.37;100.00;100245.28;6374399;27;20046;-78
2023/01/08 00:38:38;;;;;;;7.03;3.83;;;;;;;2.33;100.00;100245.41;6373273;27;20062;-80
2023/01/08 00:41:43;;;;;;;4.90;3.03;;;;;;;2.22;100.00;100236.22;6372104;27;20096;-78
2023/01/08 00:44:43;;;;;;;5.45;3.08;;;;;;;2.14;100.00;100232.97;6373500;27;20047;-78
2023/01/08 00:47:46;;;;;;;7.35;3.58;;;;;;;2.09;100.00;100234.78;6373893;27;20088;-78
2023/01/08 00:50:48;;;;;;;10.43;4.15;;;;;;;2.01;100.00;100228.97;6372884;27;20054;-78
2023/01/08 00:53:49;;;;;;;4.38;3.10;;;;;;;2.08;100.00;100232.25;6372725;27;20772;-78
2023/01/08 00:56:52;;;;;;;5.40;3.65;;;;;;;2.12;100.00;100237.31;6355602;27;20047;-78
2023/01/08 00:59:53;;;;;;;6.70;3.42;;;;;;;2.10;100.00;100231.34;6373531;27;20041;-78
2023/01/08 01:02:54;;;;;;;5.47;3.15;;;;;;;2.13;100.00;100241.56;6371467;27;20052;-78
2023/01/08 01:06:03;;;;;;;6.40;3.90;;;;;;;2.05;100.00;100234.91;6355743;27;20391;-80
2023/01/08 01:09:04;;;;;;;6.75;3.63;;;;;;;2.03;100.00;100231.50;6354991;27;20055;-80
2023/01/08 01:12:05;;;;;;;3.28;2.67;;;;;;;2.05;100.00;100232.31;6355566;27;20043;-78
2023/01/08 01:15:11;;;;;;;5.97;3.72;;;;;;;2.08;100.00;100233.13;6372277;27;20039;-78
2023/01/08 01:18:14;;;;;;;4.80;3.38;;;;;;;2.05;100.00;100233.16;6372244;27;20035;-78
2023/01/08 01:21:23;;;;;;;7.60;3.63;;;;;;;2.11;100.00;100233.03;6372034;27;20043;-80
2023/01/08 01:24:24;;;;;;;9.98;3.70;;;;;;;2.09;100.00;100232.22;6372326;27;20600;-78
2023/01/08 01:27:25;;;;;;;6.22;3.47;;;;;;;2.03;100.00;100224.63;6372487;27;20099;-80
2023/01/08 01:30:28;;;;;;;4.88;2.97;;;;;;;1.97;100.00;100227.34;6373344;27;20050;-80
2023/01/08 01:33:31;;;;;;;4.22;3.28;;;;;;;1.96;100.00;100220.53;6372007;27;20407;-80
2023/01/08 01:36:32;;;;;;;6.30;3.65;;;;;;;1.91;100.00;100214.63;6371657;27;20051;-77
2023/01/08 01:39:33;;;;;;;7.80;2.78;;;;;;;1.96;100.00;100223.94;6371978;27;20045;-77
2023/01/08 01:42:43;;;;;;;3.92;3.28;;;;;;;1.89;100.00;100208.66;6371686;27;20524;-80
2023/01/08 01:45:43;;;;;;;3.67;2.65;;;;;;;1.95;100.00;100221.38;6371689;27;20454;-77
2023/01/08 01:48:47;;;;;;;8.15;4.28;;;;;;;1.93;100.00;100230.88;6370854;27;20041;-81
2023/01/08 01:51:54;;;;;;;6.82;3.38;;;;;;;1.94;100.00;100230.00;6373173;27;20043;-80
2023/01/08 01:54:57;;;;;;;6.00;3.90;;;;;;;1.89;100.00;100224.09;6373056;27;20092;-80
2023/01/08 01:58:09;;;;;;;7.30;4.13;;;;;;;1.91;100.00;100228.31;6372636;27;20039;-77
2023/01/08 02:01:10;;;;;;;;;;;;;;;1.80;100.00;100232.88;6371878;27;20039;-80
2023/01/08 02:04:12;;;;;;;4.40;2.53;;;;;;;1.75;100.00;100226.97;6371517;27;19992;-77
2023/01/08 02:07:35;;;;;;;9.00;3.75;;;;;;;1.77;100.00;100227.78;6372733;27;20043;-77
2023/01/08 02:11:08;;;;;;;9.25;3.17;;;;;;;1.76;100.00;100219.22;6371580;27;20047;-79
2023/01/08 02:14:26;;;;;;;6.07;3.45;;;;;;;1.74;100.00;100217.56;6372836;27;20065;-77
2023/01/08 02:17:55;;;;;;;4.43;2.70;;;;;;;1.78;100.00;100222.63;6371357;28;20490;-77
2023/01/08 02:21:10;;;;;;;4.70;3.03;;;;;;;1.70;100.00;100210.81;6372928;27;20054;-80
2023/01/08 02:24:45;;;;;;;4.80;2.75;;;;;;;1.64;100.00;100209.22;6376186;27;20092;-77
2023/01/08 02:27:52;;;;;;;4.47;2.90;;;;;;;1.52;100.00;100201.75;6375024;27;20043;-80
2023/01/08 02:30:54;;;;;;;6.80;3.58;;;;;;;1.45;100.00;100197.63;6377852;27;20043;-77
2023/01/08 02:33:55;;;;;;;5.65;3.75;;;;;;;1.50;100.00;100212.06;6358905;27;20047;-77
2023/01/08 02:36:56;;;;;;;6.18;3.38;;;;;;;1.51;100.00;100210.38;6376464;27;20111;-80
2023/01/08 02:40:06;;;;;;;5.43;3.28;;;;;;;1.47;100.00;100214.72;6376120;27;20043;-77
2023/01/08 02:43:16;;;;;;;2.97;2.58;;;;;;;1.43;100.00;100202.81;6358930;27;20087;-79
2023/01/08 02:46:22;;;;;;;5.47;2.95;;;;;;;1.48;100.00;100211.25;6375965;27;20051;-80
2023/01/08 02:49:30;;;;;;;9.00;4.43;;;;;;;1.46;100.00;100205.28;6377270;27;20506;-79
2023/01/08 02:52:35;;;;;;;6.63;3.67;;;;;;;1.52;100.00;100199.19;6376014;27;20059;-77
2023/01/08 02:55:39;;;;;;;3.60;3.03;;;;;;;1.49;100.00;100202.69;6375816;27;20035;-80
2023/01/08 02:58:45;;;;;;;6.75;3.80;;;;;;;1.43;100.00;100204.53;6375710;27;20036;-78
2023/01/08 03:01:47;;;;;;;6.18;3.58;;;;;;;1.38;100.00;100204.59;6375426;27;20035;-78
2023/01/08 03:04:53;;;;;;;4.40;3.30;;;;;;;1.45;100.00;100213.06;6374050;27;20130;-78
2023/01/08 03:07:54;;;;;;;6.60;2.83;;;;;;;1.43;100.00;100210.53;6374994;27;20126;-79
2023/01/08 03:11:02;;;;;;;5.70;3.90;;;;;;;1.53;100.00;100213.75;6375348;27;20482;-80
2023/01/08 03:14:13;;;;;;;4.55;3.05;;;;;;;1.55;100.00;100210.25;6374073;27;20031;-78
2023/01/08 03:17:22;;;;;;;3.88;2.90;;;;;;;1.53;100.00;100194.00;6375518;27;20121;-79
2023/01/08 03:20:24;;;;;;;6.05;3.10;;;;;;;1.57;100.00;100199.94;6376499;27;20542;-79
2023/01/08 03:23:26;;;;;;;7.32;3.47;;;;;;;1.62;100.00;100205.81;6375065;27;20050;-77
2023/01/08 03:26:30;;;;;;;6.13;3.63;;;;;;;1.66;100.00;100204.88;6376181;27;20046;-78
2023/01/08 03:29:37;;;;;;;8.80;3.47;;;;;;;1.70;100.00;100203.09;6376167;27;20066;-77
2023/01/08 03:32:40;;;;;;;5.18;3.03;;;;;;;1.76;100.00;100203.78;6376028;27;20043;-78
2023/01/08 03:35:48;;;;;;;6.22;3.38;;;;;;;1.78;100.00;100196.88;6376132;27;20749;-77
2023/01/08 03:39:11;;;;;;;3.50;2.45;;;;;;;1.83;100.00;100194.19;6374459;27;20111;-78
2023/01/08 03:42:16;;;;;;;6.82;3.58;;;;;;;1.87;100.00;100194.97;6373536;27;20035;-78
2023/01/08 03:45:17;;;;;;;9.07;3.03;;;;;;;1.91;100.00;100183.75;6374279;27;20469;-81
2023/01/08 03:48:20;;;;;;;6.28;2.47;;;;;;;1.94;100.00;100178.53;6374546;27;20045;-78
2023/01/08 03:51:21;;;;;;;9.27;3.85;;;;;;;1.92;100.00;100188.84;6374491;27;20043;-78
2023/01/08 03:54:32;;;;;;;7.63;4.18;;;;;;;1.99;100.00;100187.81;6374397;27;20490;-81
2023/01/08 03:57:32;;;;;;;5.47;3.47;;;;;;;2.05;100.00;100184.25;6357552;27;20526;-80
2023/01/08 04:00:33;;;;;;;7.30;3.50;;;;;;;2.20;100.00;100196.78;6374017;27;20050;-78
2023/01/08 04:03:34;;;;;;;9.10;3.55;;;;;;;2.27;100.00;100196.63;6376171;27;20035;-81
2023/01/08 04:06:35;;;;;;;9.05;4.65;;;;;;;2.37;100.00;100195.53;6373789;27;20047;-81
2023/01/08 04:09:36;;;;;;;12.50;4.78;;;;;;;2.40;100.00;100191.13;6374212;27;20039;-79
2023/01/08 04:12:37;;;;;;;8.40;4.72;;;;;;;2.44;100.00;100179.00;6373986;27;20046;-79
2023/01/08 04:15:37;;;;;;;4.65;3.22;;;;;;;2.47;100.00;100168.66;6374069;27;20372;-81
2023/01/08 04:18:38;;;;;;;9.68;3.50;;;;;;;2.52;100.00;100161.63;6373762;27;20114;-78
2023/01/08 04:21:42;;;;;;;14.63;3.47;;;;;;;2.61;100.00;100168.25;6373751;27;20464;-82
2023/01/08 04:24:45;;;;;;;5.18;3.00;;;;;;;2.56;100.00;100167.56;6356397;27;20819;-79
2023/01/08 04:27:46;;;;;;;6.50;3.60;;;;;;;2.60;100.00;100164.00;6373646;27;20144;-81
2023/01/08 04:30:46;;;;;;;7.40;4.18;;;;;;;2.68;100.00;100176.66;6375270;27;20047;-82
2023/01/08 04:33:47;;;;;;;4.50;2.83;;;;;;;2.70;100.00;100190.34;6374175;27;20482;-82
2023/01/08 04:36:48;;;;;;;18.17;5.90;;;;;;;2.61;100.00;100186.31;6374542;27;20478;-82
2023/01/08 04:39:49;;;;;;;5.53;3.55;;;;;;;2.61;100.00;100188.88;6373375;27;20039;-81
2023/01/08 04:42:52;;;;;;;8.35;4.63;;;;;;;2.65;100.00;100185.34;6372901;27;20118;-82
2023/01/08 04:45:57;;;;;;;5.63;3.88;;;;;;;2.62;100.00;100177.69;6372873;27;20051;-81
2023/01/08 04:49:03;;;;;;;10.02;3.97;;;;;;;2.72;100.00;100176.56;6356252;27;20414;-79
2023/01/08 04:52:04;;;;;;;4.63;3.47;;;;;;;2.60;100.00;100172.59;6373009;27;20072;-82
2023/01/08 04:55:07;;;;;;;7.00;4.70;;;;;;;2.69;100.00;100174.06;6374102;27;20039;-79
2023/01/08 04:58:08;;;;;;;12.15;4.55;;;;;;;2.68;100.00;100169.81;6372874;27;20054;-79
2023/01/08 05:01:20;;;;;;;12.80;4.53;;;;;;;2.60;100.00;100177.72;6374221;27;20043;-80
2023/01/08 05:04:23;;;;;;;14.57;6.10;;;;;;;2.61;100.00;100182.00;6372982;27;20047;-81
2023/01/08 05:07:23;;;;;;;10.63;4.30;;;;;;;2.61;100.00;100156.25;6372883;27;20130;-82
2023/01/08 05:10:26;;;;;;;7.82;3.53;;;;;;;2.61;100.00;100171.72;6373244;27;20069;-79
2023/01/08 05:13:28;;;;;;;10.15;4.22;;;;;;;2.50;100.00;100154.84;6372905;27;20051;-82
2023/01/08 05:16:33;;;;;;;6.95;4.93;;;;;;;2.46;100.00;100158.38;6371860;27;20062;-80
2023/01/08 05:19:34;;;;;;;5.50;4.18;;;;;;;2.63;100.00;100175.06;6372099;27;20409;-79
2023/01/08 05:22:37;;;;;;;6.88;3.78;;;;;;;2.61;100.00;100181.16;6370328;27;20043;-79
2023/01/08 05:25:40;;;;;;;8.48;4.03;;;;;;;2.48;100.00;100161.75;6371190;27;20446;-82
2023/01/08 05:28:41;;;;;;;3.92;2.97;;;;;;;2.53;100.00;100165.03;6371918;27;20117;-79
2023/01/08 05:31:44;;;;;;;8.30;3.63;;;;;;;2.55;100.00;100171.88;6355276;27;20532;-79
2023/01/08 05:34:45;;;;;;;8.57;4.57;;;;;;;2.54;100.00;100165.00;6372112;27;20062;-79
2023/01/08 05:37:46;;;;;;;8.02;3.45;;;;;;;2.66;100.00;100169.00;6372213;27;20096;-82
2023/01/08 05:40:47;;;;;;;10.38;5.47;;;;;;;2.71;100.00;100167.13;6373040;27;20035;-80
2023/01/08 05:43:47;;;;;;;7.55;3.60;;;;;;;2.61;100.00;100169.13;6371834;27;20035;-82
2023/01/08 05:46:48;;;;;;;8.73;4.00;;;;;;;2.57;100.00;100164.06;6372066;27;20059;-82
2023/01/08 05:49:52;;;;;;;9.02;4.28;;;;;;;2.60;100.00;100169.16;6371587;27;20489;-80
2023/01/08 05:52:52;;;;;;;4.30;2.42;;;;;;;2.56;100.00;100152.09;6372783;27;20074;-80
2023/01/08 05:56:05;;;;;;;5.78;3.90;;;;;;;2.65;100.00;100164.72;6371730;27;20189;-83
2023/01/08 05:59:06;;;;;;;6.85;3.70;;;;;;;2.69;100.00;100171.47;6371239;27;20035;-80
2023/01/08 06:02:08;;;;;;;3.78;3.20;;;;;;;2.72;100.00;100188.59;6371383;27;20164;-80
2023/01/08 06:05:08;;;;;;;8.07;4.65;;;;;;;2.65;100.00;100184.50;6371687;27;20047;-84
2023/01/08 06:08:09;;;;;;;6.55;3.67;;;;;;;2.62;100.00;100186.28;6371969;27;20465;-80
2023/01/08 06:11:13;;;;;;;4.07;3.25;;;;;;;2.78;100.00;100188.41;6371786;27;20045;-83
2023/01/08 06:14:17;;;;;;;11.65;4.15;;;;;;;2.82;100.00;100177.16;6372747;27;20046;-84
2023/01/08 06:17:18;;;;;;;7.90;4.40;;;;;;;2.72;100.00;100179.16;6371967;28;20039;-83
2023/01/08 06:20:21;;;;;;;6.05;3.30;;;;;;;2.85;100.00;100184.81;6354353;28;20066;-83
2023/01/08 06:23:22;;;;;;;8.32;4.72;;;;;;;2.85;100.00;100182.22;6354593;28;20055;-83
2023/01/08 06:26:23;;;;;;;9.32;5.15;;;;;;;2.88;100.00;100195.03;6372515;27;20051;-80
2023/01/08 06:29:23;;;;;;;10.40;4.57;;;;;;;2.74;100.00;100185.09;6372404;27;20065;-83
2023/01/08 06:32:24;;;;;;;14.10;5.78;;;;;;;2.71;100.00;100185.16;6372096;27;20047;-83
2023/01/08 06:35:26;;;;;;;8.18;4.25;;;;;;;2.73;100.00;100196.28;6370487;27;20047;-83
2023/01/08 06:38:30;;;;;;;7.53;3.77;;;;;;;2.76;100.00;100196.22;6371251;28;20065;-80
2023/01/08 06:41:31;;;;;;;4.97;3.88;;;;;;;2.79;100.00;100201.28;6370958;28;20313;-83
2023/01/08 06:44:32;;;;;;;13.30;4.82;;;;;;;2.78;100.00;100185.84;6388588;27;20482;-80
2023/01/08 06:47:35;;;;;;;12.13;5.40;;;;;;;2.79;100.00;100198.69;6353881;28;20051;-83
2023/01/08 06:50:36;;;;;;;13.90;6.00;;;;;;;2.79;100.00;100187.56;6371109;28;20047;-80
2023/01/08 06:53:36;;;;;;;8.63;4.88;;;;;;;2.86;100.00;100193.38;6371218;28;20102;-83
2023/01/08 06:56:39;;;;;;;12.75;4.95;;;;;;;2.83;100.00;100204.63;6373033;27;20045;-83
2023/01/08 06:59:40;;;;;;;15.93;6.30;;;;;;;2.77;100.00;100205.63;6372035;28;20042;-87
2023/01/08 07:02:41;;;;;;;9.48;5.63;;;;;;;2.84;100.00;100211.44;6371323;28;20399;-82
2023/01/08 07:05:42;;;;;;;12.32;5.68;;;;;;;2.77;100.00;100208.19;6362749;27;20115;-82
2023/01/08 07:08:44;;;;;;;10.20;5.50;;;;;;;2.90;100.00;100207.88;6359996;27;20059;-82
2023/01/08 07:11:44;;;;;;;11.05;6.57;;;;;;;2.85;100.00;100217.47;6337357;28;20152;-83
2023/01/08 07:14:45;;;;;;;12.73;5.82;;;;;;;2.80;100.00;100223.59;6354438;27;20039;-82
2023/01/08 07:17:46;;;;;;;8.27;6.15;;;;;;;2.88;100.00;100228.53;6375804;27;20088;-83
2023/01/08 07:20:48;;;;;;;10.27;6.45;;;;;;;2.97;100.00;100237.78;6374272;27;20050;-82
2023/01/08 07:23:49;;;;;;;9.63;5.97;;;;;;;2.96;100.00;100233.50;6372788;27;20452;-82
2023/01/08 07:26:50;;;;;;;18.02;7.43;;;;;;;2.95;100.00;100227.50;6367522;27;20043;-85
2023/01/08 07:29:50;;;;;;;9.57;5.80;;;;;;;2.89;100.00;100219.09;6367105;27;20402;-85
2023/01/08 07:32:59;;;;;;;11.70;7.30;;;;;;;2.86;100.00;100203.69;6366554;27;20179;-85
2023/01/08 07:36:01;;;;;;;12.95;6.78;;;;;;;2.91;100.00;100222.47;6369830;27;20039;-84
2023/01/08 07:39:02;;;;;;;9.80;5.50;;;;;;;2.94;100.00;100227.53;6376032;27;20049;-84
2023/01/08 07:42:03;;;;;;;12.43;6.28;;;;;;;2.90;100.00;100224.19;6375663;27;20039;-83
2023/01/08 07:45:04;;;;;;;12.77;6.43;;;;;;;2.87;100.00;100219.13;6374004;27;20035;-84
2023/01/08 07:48:06;;;;;;;13.50;6.87;;;;;;;3.08;100.00;100220.25;6357125;27;20574;-82
2023/01/08 07:51:08;;;;;;;12.43;6.75;;;;;;;3.11;100.00;100243.41;6373536;27;20043;-84
2023/01/08 07:54:09;;;;;;;11.65;6.45;;;;;;;3.07;100.00;100244.38;6374593;27;20063;-84
2023/01/08 07:57:09;;;;;;;16.42;6.22;;;;;;;3.10;100.00;100233.97;6373995;27;20083;-84
2023/01/08 08:00:13;;;;;;;11.02;6.72;;;;;;;3.08;100.00;100235.72;6359040;27;20040;-82
2023/01/08 08:03:15;;;;;;;9.60;5.80;;;;;;;3.09;100.00;100234.88;6372422;27;20471;-82
2023/01/08 08:06:15;;;;;;;10.23;6.03;;;;;;;3.08;100.00;100228.00;6372565;27;20046;-84
2023/01/08 08:09:16;;;;;;;15.73;6.85;;;;;;;3.18;100.00;100238.91;6374248;27;20039;-84
2023/01/08 08:12:17;;;;;;;13.50;6.68;;;;;;;3.16;100.00;100227.78;6372348;27;20114;-83
2023/01/08 08:15:18;;;;;;;11.95;6.60;;;;;;;3.13;100.00;100225.28;6372570;27;20039;-84
2023/01/08 08:18:19;;;;;;;19.20;7.35;;;;;;;3.10;100.00;100236.53;6371831;27;20034;-83
2023/01/08 08:21:19;;;;;;;11.20;5.45;;;;;;;3.20;100.00;100225.09;6371193;27;20035;-83
2023/01/08 08:24:20;;;;;;;21.23;7.88;;;;;;;3.20;100.00;100211.34;6373768;27;20035;-82
2023/01/08 08:27:23;;;;;;;8.05;5.75;;;;;;;3.16;100.00;100223.47;6369884;27;20047;-81
2023/01/08 08:30:25;;;;;;;10.65;5.28;;;;;;;3.23;100.00;100211.25;6351735;27;20044;-81
2023/01/08 08:33:26;;;;;;;14.55;6.75;;;;;;;3.19;100.00;100205.34;6359002;27;20035;-81
2023/01/08 08:36:28;;;;;;;11.00;5.85;;;;;;;3.27;100.00;100212.03;6370845;27;20035;-81
2023/01/08 08:39:29;;;;;;;18.20;7.25;;;;;;;3.33;100.00;100217.84;6341577;27;20043;-81
2023/01/08 08:42:29;;;;;;;13.85;7.10;;;;;;;3.36;100.00;100216.94;6364933;27;20035;-82
2023/01/08 08:45:30;;;;;;;14.90;7.93;;;;;;;3.43;100.00;100221.84;6368892;27;20054;-82
2023/01/08 08:48:31;;;;;;;19.00;7.57;;;;;;;3.48;100.00;100226.91;6353973;27;20051;-81
2023/01/08 08:51:32;;;;;;;21.48;9.07;;;;;;;3.50;100.00;100227.69;6372279;27;20485;-83
2023/01/08 08:54:40;;;;;;;13.15;7.22;;;;;;;3.48;100.00;100218.28;6372767;27;20050;-83
2023/01/08 08:57:43;;;;;;;18.50;9.95;;;;;;;3.59;100.00;100226.56;6371145;27;20401;-83
2023/01/08 09:00:46;;;;;;;18.08;6.97;;;;;;;3.56;100.00;100219.78;6372284;27;20043;-84
2023/01/08 09:03:49;;;;;;;15.48;6.68;;;;;;;3.73;100.00;100219.25;6354072;27;20047;-82
2023/01/08 09:06:51;;;;;;;9.95;6.03;;;;;;;3.70;100.00;100214.19;6372128;27;20043;-84
2023/01/08 09:09:52;;;;;;;25.73;7.38;;;;;;;3.79;100.00;100220.81;6371436;27;20084;-84
2023/01/08 09:12:53;;;;;;;11.85;5.93;;;;;;;3.79;100.00;100223.41;6351940;27;20039;-84
2023/01/08 09:15:57;;;;;;;17.85;7.70;;;;;;;3.70;100.00;100221.09;6349523;27;20072;-82
2023/01/08 09:18:58;;;;;;;11.45;6.00;;;;;;;3.83;100.00;100212.94;6360823;27;20522;-83
2023/01/08 09:22:00;;;;;;;16.23;7.53;;;;;;;3.88;100.00;100217.94;6354922;27;20062;-83
2023/01/08 09:25:01;;;;;;;;;;;;;;;4.03;100.00;100211.47;6372328;27;20043;-83
2023/01/08 09:28:06;;;;;;;10.18;5.53;;;;;;;4.04;100.00;100208.84;6361116;27;19919;-83
2023/01/08 09:31:06;;;;;;;9.32;4.60;;;;;;;4.11;100.00;100198.31;6352939;27;20039;-82
2023/01/08 09:34:07;;;;;;;14.30;5.82;;;;;;;4.16;100.00;100197.28;6370389;27;20043;-80
2023/01/08 09:37:08;;;;;;;7.28;3.83;;;;;;;4.13;100.00;100193.94;6370274;27;20050;-82
2023/01/08 09:40:15;;;;;;;10.50;6.30;;;;;;;4.26;100.00;100184.03;6370211;27;20546;-83
2023/01/08 09:43:19;;;;;;;8.15;5.28;;;;;;;4.36;100.00;100183.69;6371374;27;20043;-81
2023/01/08 09:46:23;;;;;;;6.90;4.28;;;;;;;4.42;100.00;100192.97;6370724;27;20109;-84
2023/01/08 09:49:38;;;;;;;7.65;4.70;;;;;;;4.34;100.00;100166.56;6371122;27;20067;-84
2023/01/08 09:52:39;;;;;;;5.93;3.92;;;;;;;4.52;100.00;100173.69;6365002;27;20042;-81
2023/01/08 09:55:41;;;;;;;5.72;3.95;;;;;;;4.66;100.00;100172.38;6357206;27;20031;-81
2023/01/08 09:58:58;;;;;;;16.92;5.70;;;;;;;4.69;100.00;100172.25;6343600;27;20067;-84
2023/01/08 10:01:59;;;;;;;8.95;5.25;;;;;;;4.66;100.00;100167.22;6369741;27;20394;-81
2023/01/08 10:05:04;;;;;;;9.40;5.93;;;;;;;4.73;100.00;100156.59;6361091;27;20046;-82
2023/01/08 10:08:05;;;;;;;9.93;5.68;;;;;;;4.82;100.00;100158.88;6367951;27;20035;-81
2023/01/08 10:11:07;;;;;;;8.63;5.78;;;;;;;4.82;100.00;100158.88;6348755;27;20150;-83
2023/01/08 10:14:22;;;;;;;8.57;4.63;;;;;;;4.94;100.00;100155.00;6360081;27;20039;-83
2023/01/08 10:17:32;;;;;;;7.60;4.90;;;;;;;4.87;100.00;100148.34;6369534;27;20088;-81
2023/01/08 10:20:33;;;;;;;8.40;4.90;;;;;;;4.84;100.00;100141.56;6369795;28;20502;-84
2023/01/08 10:23:34;;;;;;;10.75;5.18;;;;;;;4.91;100.00;100139.59;6370598;28;20043;-83
2023/01/08 10:26:39;;;;;;;7.00;4.72;;;;;;;4.84;100.00;100136.38;6366131;28;20035;-80
2023/01/08 10:29:40;;;;;;;7.22;4.03;;;;;;;4.94;100.00;100136.03;6365384;28;20406;-79
2023/01/08 10:32:49;;;;;;;4.85;3.45;;;;;;;4.93;100.00;100137.78;6349594;28;20051;-83
2023/01/08 10:36:01;;;;;;;5.25;3.97;;;;;;;4.94;100.00;100130.88;6354057;28;20539;-84
2023/01/08 10:39:02;;;;;;;8.63;4.45;;;;;;;5.12;100.00;100127.59;6371009;28;20039;-84
2023/01/08 10:42:11;;;;;;;10.60;4.57;;;;;;;4.99;100.00;100101.34;6374022;27;20035;-80
2023/01/08 10:45:19;;;;;;;7.53;3.75;;;;;;;5.14;100.00;100105.09;6377305;27;20500;-80
2023/01/08 10:48:20;;;;;;;10.73;4.55;;;;;;;5.23;100.00;100101.34;6375762;27;20058;-84
2023/01/08 10:51:26;;;;;;;9.02;5.63;;;;;;;5.24;100.00;100116.78;6375858;27;20076;-80
2023/01/08 10:54:36;;;;;;;6.53;4.22;;;;;;;5.40;100.00;100114.47;6356825;27;20446;-80
2023/01/08 10:57:40;;;;;;;10.20;4.38;;;;;;;5.32;100.00;100107.91;6375889;27;20040;-80
2023/01/08 11:00:41;;;;;;;6.38;4.07;;;;;;;5.33;100.00;100107.00;6375390;27;20407;-80
2023/01/08 11:03:45;;;;;;;9.10;4.40;;;;;;;5.50;100.00;100099.44;6377537;27;20050;-84
2023/01/08 11:06:46;;;;;;;6.68;4.65;;;;;;;5.51;100.00;100097.69;6375860;27;20031;-79
2023/01/08 11:09:50;;;;;;;8.48;4.95;;;;;;;5.63;100.00;100092.03;6350463;28;20063;-84
2023/01/08 11:12:57;;;;;;;16.35;5.60;;;;;;;5.70;100.00;100085.69;6351574;27;20402;-84
2023/01/08 11:16:12;;;;;;;10.65;5.03;;;;;;;5.73;100.00;100088.16;6351512;28;20074;-81
2023/01/08 11:19:24;;;;;;;9.55;4.57;;;;;;;5.87;100.00;100082.44;6349531;28;20051;-83
2023/01/08 11:22:26;;;;;;;6.38;3.97;;;;;;;5.66;100.00;100076.34;6349671;28;20410;-81
2023/01/08 11:25:29;;;;;;;15.02;5.65;;;;;;;5.78;100.00;100064.66;6350479;28;20054;-81
2023/01/08 11:28:48;;;;;;;10.48;5.93;;;;;;;5.91;100.00;100065.00;6349588;28;20039;-81
2023/01/08 11:31:56;;;;;;;9.80;5.22;;;;;;;5.98;100.00;100066.47;6350540;28;20044;-82
2023/01/08 11:35:09;;;;;;;12.63;4.80;;;;;;;6.08;100.00;100074.69;6349359;28;20039;-78
2023/01/08 11:38:11;;;;;;;9.77;4.15;;;;;;;6.09;100.00;100063.41;6350486;28;20035;-82
2023/01/08 11:41:47;;;;;;;10.63;6.13;;;;;;;6.23;100.00;100063.69;6350015;28;20067;-79
2023/01/08 11:45:19;;;;;;;12.38;5.07;;;;;;;6.26;100.00;100068.75;6331586;28;20051;-78
2023/01/08 11:48:29;;;;;;;6.78;4.18;;;;;;;6.32;100.00;100059.84;6339094;28;20551;-79
2023/01/08 11:51:33;;;;;;;15.27;4.97;;;;;;;6.28;100.00;100066.94;6354902;27;20042;-82
2023/01/08 11:54:54;;;;;;;8.40;4.60;;;;;;;6.36;100.00;100053.63;6357431;27;20040;-78
2023/01/08 11:58:21;;;;;;;5.82;4.07;;;;;;;6.43;100.00;100053.28;6362128;27;20031;-78
2023/01/08 12:01:54;;;;;;;8.75;4.68;;;;;;;6.43;100.00;100047.28;6373801;27;20051;-83
2023/01/08 12:05:20;;;;;;;8.43;3.97;;;;;;;6.44;100.00;100041.16;6368904;27;20048;-83
2023/01/08 12:08:24;;;;;;;6.95;4.40;;;;;;;6.54;100.00;100041.59;6348556;28;20035;-78
2023/01/08 12:11:29;;;;;;;8.07;4.78;;;;;;;6.71;100.00;100039.09;6348352;28;20054;-83
2023/01/08 12:14:46;;;;;;;10.23;5.32;;;;;;;6.73;100.00;100045.03;6331218;28;20047;-83
2023/01/08 12:17:58;;;;;;;10.63;5.18;;;;;;;6.65;100.00;100041.94;6331110;28;20168;-78
2023/01/08 12:21:07;;;;;;;10.45;4.82;;;;;;;6.68;100.00;100031.47;6349688;28;20096;-83
2023/01/08 12:24:36;;;;;;;9.90;5.65;;;;;;;6.76;100.00;100024.16;6341408;27;20047;-78
2023/01/08 12:27:58;;;;;;;7.32;4.32;;;;;;;6.95;100.00;100025.91;6348022;28;20043;-82
2023/01/08 12:31:11;;;;;;;7.55;4.15;;;;;;;6.95;100.00;100033.69;6347921;28;20559;-82
2023/01/08 12:34:18;;;;;;;7.90;5.13;;;;;;;7.02;100.00;100020.38;6346472;28;20107;-83
2023/01/08 12:37:49;;;;;;;12.10;6.30;;;;;;;7.14;100.00;100020.69;6347190;28;20043;-83
2023/01/08 12:40:56;;;;;;;10.63;5.13;;;;;;;7.02;100.00;100016.94;6357529;27;20047;-78
2023/01/08 12:44:01;;;;;;;10.65;5.93;;;;;;;7.10;100.00;100001.00;6374289;27;20486;-83
2023/01/08 12:47:06;;;;;;;8.38;5.50;;;;;;;7.11;100.00;99998.34;6366394;27;20102;-83
2023/01/08 12:50:43;;;;;;;8.18;4.82;;;;;;;6.97;100.00;100005.94;6359878;27;20111;-78
2023/01/08 12:54:12;;;;;;;8.30;4.25;;;;;;;7.04;100.00;100004.72;6359779;27;20059;-78
2023/01/08 12:57:22;;;;;;;10.13;4.60;;;;;;;7.15;100.00;99992.09;6366176;27;20043;-83
2023/01/08 13:00:36;;;;;;;11.55;6.00;;;;;;;7.15;100.00;99996.44;6366890;27;20388;-83
2023/01/08 13:03:38;;;;;;;14.57;4.85;;;;;;;7.19;100.00;99993.63;6351146;27;20093;-77
2023/01/08 13:06:50;;;;;;;10.60;4.93;;;;;;;7.08;100.00;99993.28;6355718;27;20048;-78
2023/01/08 13:10:05;;;;;;;10.40;4.65;;;;;;;7.08;100.00;99993.28;6343668;28;20058;-78
2023/01/08 13:13:22;;;;;;;14.70;5.40;;;;;;;7.08;100.00;99990.69;6345306;28;20039;-78
2023/01/08 13:16:24;;;;;;;9.00;4.85;;;;;;;7.03;100.00;99977.13;6328139;28;20134;-78
2023/01/08 13:19:27;;;;;;;8.02;5.40;;;;;;;7.16;100.00;99990.34;6344838;28;20039;-78
2023/01/08 13:22:33;;;;;;;11.73;5.45;;;;;;;7.10;100.00;99988.03;6335308;27;20043;-83
2023/01/08 13:25:37;;;;;;;9.93;5.40;;;;;;;7.20;100.00;99989.28;6356554;27;20047;-78
2023/01/08 13:28:44;;;;;;;8.95;5.50;;;;;;;7.11;100.00;99985.38;6338437;28;20108;-83
2023/01/08 13:31:45;;;;;;;14.48;6.53;;;;;;;7.10;100.00;99964.69;6349240;27;20055;-83
2023/01/08 13:34:46;;;;;;;10.52;5.35;;;;;;;7.07;100.00;99973.47;6352026;27;20047;-78
2023/01/08 13:38:06;;;;;;;8.68;4.30;;;;;;;7.16;100.00;99992.94;6368603;27;20031;-78
2023/01/08 13:41:29;;;;;;;10.32;5.03;;;;;;;7.19;100.00;99988.44;6368279;27;20039;-78
2023/01/08 13:44:41;;;;;;;8.45;5.50;;;;;;;7.15;100.00;99991.25;6365013;27;20127;-83
2023/01/08 13:47:43;;;;;;;11.60;5.93;;;;;;;7.13;100.00;99977.53;6345409;28;20071;-78
2023/01/08 13:50:45;;;;;;;6.10;4.68;;;;;;;7.07;100.00;99983.84;6342907;28;20055;-78
2023/01/08 13:53:46;;;;;;;;;;;;;;;7.13;100.00;99995.69;6343897;28;20490;-80
2023/01/08 13:56:51;;;;;;;6.80;3.78;;;;;;;7.02;100.00;99976.28;6344018;28;19927;-78
2023/01/08 13:59:57;;;;;;;12.48;6.32;;;;;;;7.14;100.00;99984.38;6344732;28;20063;-78
2023/01/08 14:03:00;;;;;;;9.88;5.85;;;;;;;7.10;100.00;99975.06;6343467;28;20059;-83
2023/01/08 14:06:17;;;;;;;10.32;5.85;;;;;;;7.13;100.00;99975.75;6327013;28;20043;-82
2023/01/08 14:09:23;;;;;;;9.82;6.47;;;;;;;7.23;100.00;99978.75;6343525;28;20047;-78
2023/01/08 14:12:24;;;;;;;9.32;5.68;;;;;;;7.10;100.00;99972.47;6343119;28;20047;-83
2023/01/08 14:15:27;;;;;;;9.13;5.15;;;;;;;7.07;100.00;99976.88;6343238;28;20093;-83
2023/01/08 14:18:28;;;;;;;9.63;5.63;;;;;;;7.16;100.00;99965.22;6343042;28;20044;-83
2023/01/08 14:21:29;;;;;;;5.78;4.40;;;;;;;7.05;100.00;99965.75;6344090;28;20035;-78